• Join FlightAware (Why Join?)
  • Login
  • US Flag 
05:47AM EDT


 

Airport Tracker/Info


-or-


 

Live Flight TrackerFlight Track Log ✈ N9791F ✈ 09-Jan-2014 ✈ KHUA - KCMD

Flight Track Log - Related Links

Times and Time Zones

All times are in EST time to prevent confusion due to time zone crossing. See the N9791F flight status page for this flight to view local times or setup timezone preferences in your user account.

Time Position Orientation Groundspeed Altitude Reporting Facility
EST Latitude Longitude Course Direction KTS MPH feet Rate Location/Type
03:30PM 34.6872 -86.6867 198° South 111 128 1,300  Level Memphis Center
03:31PM 34.7047 -86.6772 24° Northeast 73 84 2,100 720 Climbing Memphis Center
03:32PM 34.6903 -86.6636 142° Southeast 79 91 2,900 720 Climbing Memphis Center
03:33PM 34.6744 -86.6667 189° South 68 78 3,700 480 Climbing Memphis Center
03:34PM 34.6717 -86.6608 120° Southeast 86 99 3,900  Climbing Memphis Center
03:35PM 34.7031 -86.6461 21° North 112 129 3,700 -180 Descending Memphis Center
03:36PM 34.5564 -86.7340 198° South  Level FlightAware Approximate
03:36PM 34.7203 -86.6103 60° Northeast 107 123 3,600  Level Memphis Center
03:37PM 34.7100 -86.5836 115° Southeast 96 110 3,900 120 Climbing Memphis Center
03:38PM 34.6922 -86.5697 147° Southeast 86 99 3,900 -180 Level Memphis Center
03:40PM 34.6708 -86.5619 163° South 80 92 3,600 -300 Descending Memphis Center
03:41PM 34.6439 -86.5519 163° South 87 100 3,400 -240 Descending Memphis Center
03:42PM 34.6186 -86.5494 175° South 90 104 3,200 -180 Descending Memphis Center
03:43PM 34.5900 -86.5597 196° South 90 104 3,100  Descending Memphis Center
03:44PM 34.5722 -86.5792 222° Southwest 88 101 3,200 120 Climbing Memphis Center
03:45PM 34.5572 -86.5986 227° Southwest 84 97 3,400 60 Climbing Memphis Center
03:46PM 34.5403 -86.6161 220° Southwest 81 93 3,400 -60 Level Memphis Center
03:47PM 34.5219 -86.6375 224° Southwest 84 97 3,300 -120 Descending Memphis Center
03:48PM 34.5031 -86.6606 225° Southwest 90 104 3,200 -60 Descending Memphis Center
03:49PM 34.4817 -86.6883 227° Southwest 93 107 3,200  Level Memphis Center
03:50PM 34.4647 -86.7122 229° Southwest 94 108 3,300 -60 Climbing Memphis Center
03:51PM 34.4408 -86.7233 201° Southwest 97 112 3,100 -300 Descending Memphis Center
03:52PM 34.4183 -86.7369 207° Southwest 93 107 2,700 -300 Descending Memphis Center
03:53PM 34.3950 -86.7547 212° Southwest 95 109 2,500 -300 Descending Memphis Center
03:54PM 34.3733 -86.7778 221° Southwest 100 115 2,200 -240 Descending Memphis Center
03:55PM 34.3536 -86.8025 226° Southwest 102 117 2,100 -60 Descending Memphis Center
03:56PM 34.3319 -86.8350 231° Southwest 104 120 2,100 60 Level Memphis Center
03:57PM 34.3114 -86.8597 225° Southwest 103 119 2,300 60 Climbing Memphis Center
03:58PM 34.2886 -86.8789 215° Southwest 102 117 2,300 -180 Level Memphis Center
03:59PM 34.2633 -86.8850 191° South 97 112 2,000 -300 Descending Memphis Center
04:00PM 34.2483 -86.8822 171° South 77 89 1,700 -300 Descending Memphis Center
04:01PM 34.2475 -86.8572 92° East 74 85 1,500 -240 Descending Memphis Center